createdAt,value
2022-09-21T00:00:38.791Z,9.19
2022-09-21T00:03:05.648Z,9.14
2022-09-21T00:05:33.249Z,9.07
2022-09-21T00:08:01.140Z,9.05
2022-09-21T00:10:27.563Z,9.04
2022-09-21T00:12:53.982Z,8.98
2022-09-21T00:15:21.177Z,8.94
2022-09-21T00:17:48.490Z,8.91
2022-09-21T00:20:16.234Z,9.00
2022-09-21T00:22:42.863Z,8.97
2022-09-21T00:25:09.847Z,8.98
2022-09-21T00:27:36.590Z,8.95
2022-09-21T00:30:04.192Z,8.98
2022-09-21T00:32:31.982Z,9.04
2022-09-21T00:34:58.796Z,8.92
2022-09-21T00:37:25.310Z,8.97
2022-09-21T00:39:52.107Z,8.89
2022-09-21T00:42:24.554Z,8.85
2022-09-21T00:44:50.949Z,8.82
2022-09-21T00:47:21.971Z,8.80
2022-09-21T00:49:54.353Z,8.70
2022-09-21T00:52:24.204Z,8.57
2022-09-21T00:54:58.307Z,8.47
2022-09-21T00:57:27.383Z,8.52
2022-09-21T00:59:57.247Z,8.52
2022-09-21T01:02:24.505Z,8.54
2022-09-21T01:04:55.975Z,8.52
2022-09-21T01:07:28.337Z,8.43
2022-09-21T01:09:58.663Z,8.39
2022-09-21T01:12:37.331Z,8.37
2022-09-21T01:15:41.750Z,8.37
2022-09-21T01:18:13.877Z,8.40
2022-09-21T01:21:02.187Z,8.40
2022-09-21T01:23:54.860Z,8.44
2022-09-21T01:26:37.851Z,8.42
2022-09-21T01:29:19.975Z,8.37
2022-09-21T01:32:05.326Z,8.30
2022-09-21T01:34:45.587Z,8.32
2022-09-21T01:37:17.782Z,8.23
2022-09-21T01:39:48.707Z,8.16
2022-09-21T01:42:17.557Z,8.13
2022-09-21T01:44:46.145Z,8.12
2022-09-21T01:47:14.294Z,8.07
2022-09-21T01:49:47.264Z,8.10
2022-09-21T01:52:19.797Z,8.21
2022-09-21T01:54:52.449Z,8.12
2022-09-21T01:57:34.806Z,8.16
2022-09-21T02:00:02.186Z,8.23
2022-09-21T02:02:38.588Z,8.02
2022-09-21T02:05:06.659Z,7.96
2022-09-21T02:07:34.484Z,7.96
2022-09-21T02:10:03.052Z,7.93
2022-09-21T02:12:32.145Z,7.89
2022-09-21T02:14:59.719Z,7.98
2022-09-21T02:17:48.923Z,7.99
2022-09-21T02:20:32.274Z,7.92
2022-09-21T02:23:25.049Z,7.86
2022-09-21T02:26:09.300Z,7.78
2022-09-21T02:28:44.548Z,7.78
2022-09-21T02:31:17.809Z,7.70
2022-09-21T02:34:33.998Z,7.70
2022-09-21T02:37:11.092Z,7.68
2022-09-21T02:39:56.047Z,7.70
2022-09-21T02:42:28.134Z,7.60
2022-09-21T02:45:03.315Z,7.70
2022-09-21T02:47:52.149Z,7.61
2022-09-21T02:50:55.025Z,7.79
2022-09-21T02:53:26.658Z,7.71
2022-09-21T02:55:56.677Z,7.72
2022-09-21T02:58:26.832Z,7.64
2022-09-21T03:00:56.502Z,7.67
2022-09-21T03:03:24.810Z,7.78
2022-09-21T03:05:53.787Z,7.75
2022-09-21T03:08:20.387Z,7.63
2022-09-21T03:10:50.708Z,7.75
2022-09-21T03:13:18.360Z,7.67
2022-09-21T03:15:45.825Z,7.68
2022-09-21T03:18:12.745Z,7.68
2022-09-21T03:20:40.977Z,7.57
2022-09-21T03:23:07.799Z,7.58
2022-09-21T03:25:34.378Z,7.50
2022-09-21T03:28:01.503Z,7.50
2022-09-21T03:30:29.234Z,7.53
2022-09-21T03:32:56.177Z,7.44
2022-09-21T03:35:26.566Z,7.43
2022-09-21T03:37:55.086Z,7.37
2022-09-21T03:40:22.144Z,7.48
2022-09-21T03:42:48.644Z,7.37
2022-09-21T03:45:15.056Z,7.35
2022-09-21T03:47:42.141Z,7.33
2022-09-21T03:50:10.205Z,7.47
2022-09-21T03:52:38.467Z,7.46
2022-09-21T03:55:08.878Z,7.31
2022-09-21T03:57:38.849Z,7.34
2022-09-21T04:00:08.935Z,7.26
2022-09-21T04:02:36.506Z,7.23
2022-09-21T04:05:03.406Z,7.26
2022-09-21T04:07:36.879Z,7.30
2022-09-21T04:10:06.063Z,7.31
2022-09-21T04:12:34.567Z,7.27
2022-09-21T04:15:01.669Z,7.26
2022-09-21T04:17:28.678Z,7.30
2022-09-21T04:19:55.141Z,7.34
2022-09-21T04:22:21.623Z,7.19
2022-09-21T04:24:48.085Z,7.23
2022-09-21T04:27:14.476Z,7.16
2022-09-21T04:29:41.227Z,7.09
2022-09-21T04:32:07.643Z,7.12
2022-09-21T04:34:34.403Z,7.07
2022-09-21T04:37:00.837Z,7.13
2022-09-21T04:39:27.184Z,7.10
2022-09-21T04:41:53.527Z,7.06
2022-09-21T04:44:20.400Z,7.06
2022-09-21T04:46:47.186Z,7.12
2022-09-21T04:49:13.800Z,6.96
2022-09-21T04:51:40.207Z,7.09
2022-09-21T04:54:06.686Z,7.07
2022-09-21T04:56:33.788Z,7.06
2022-09-21T04:59:00.225Z,6.97
2022-09-21T05:01:27.447Z,6.92
2022-09-21T05:03:54.018Z,6.89
2022-09-21T05:06:20.482Z,6.79
2022-09-21T05:09:05.297Z,6.86
2022-09-21T05:11:32.062Z,6.89
2022-09-21T05:13:58.557Z,6.88
2022-09-21T05:16:24.950Z,6.86
2022-09-21T05:18:54.124Z,6.92
2022-09-21T05:21:21.487Z,6.85
2022-09-21T05:23:48.035Z,6.96
2022-09-21T05:26:14.417Z,6.84
2022-09-21T05:28:41.980Z,6.76
2022-09-21T05:31:27.224Z,6.93
2022-09-21T05:34:11.021Z,6.97
2022-09-21T05:36:48.301Z,6.99
2022-09-21T05:39:15.124Z,7.00
2022-09-21T05:41:41.813Z,7.03
2022-09-21T05:44:13.117Z,6.99
2022-09-21T05:46:42.686Z,7.10
2022-09-21T05:49:24.322Z,7.06
2022-09-21T05:52:24.730Z,7.14
2022-09-21T05:55:02.461Z,7.30
2022-09-21T05:57:45.807Z,7.31
2022-09-21T06:00:22.423Z,7.27
2022-09-21T06:03:25.502Z,7.31
2022-09-21T06:05:52.225Z,7.40
2022-09-21T06:08:18.775Z,7.50
2022-09-21T06:10:45.784Z,7.50
2022-09-21T06:13:12.295Z,7.60
2022-09-21T06:15:39.007Z,7.65
2022-09-21T06:18:12.139Z,7.63
2022-09-21T06:20:40.890Z,7.68
2022-09-21T06:23:09.622Z,7.86
2022-09-21T06:25:36.428Z,7.93
2022-09-21T06:28:13.080Z,7.92
2022-09-21T06:32:36.087Z,8.06
2022-09-21T06:35:02.537Z,8.02
2022-09-21T06:37:29.108Z,8.05
2022-09-21T06:39:55.444Z,8.12
2022-09-21T06:42:22.036Z,8.16
2022-09-21T06:44:48.608Z,8.21
2022-09-21T06:47:15.113Z,8.25
2022-09-21T06:49:42.645Z,8.23
2022-09-21T06:52:09.233Z,8.43
2022-09-21T06:54:36.912Z,8.39
2022-09-21T06:57:03.529Z,8.44
2022-09-21T06:59:30.021Z,8.56
2022-09-21T07:01:58.422Z,8.75
2022-09-21T07:04:25.432Z,9.32
2022-09-21T07:06:51.991Z,10.48
2022-09-21T07:12:07.055Z,12.24
2022-09-21T07:14:33.821Z,12.27
2022-09-21T07:17:00.310Z,11.35
2022-09-21T07:19:26.828Z,11.39
2022-09-21T07:21:54.271Z,12.71
2022-09-21T07:24:20.635Z,13.06
2022-09-21T07:26:47.215Z,13.57
2022-09-21T07:29:13.617Z,13.34
2022-09-21T07:31:43.823Z,13.00
2022-09-21T07:34:11.158Z,14.53
2022-09-21T07:36:37.541Z,14.43
2022-09-21T07:39:04.144Z,14.22
2022-09-21T07:41:30.892Z,13.61
2022-09-21T07:43:57.240Z,13.22
2022-09-21T07:46:23.736Z,13.25
2022-09-21T07:48:53.869Z,14.40
2022-09-21T07:51:20.281Z,12.85
2022-09-21T07:53:46.995Z,12.99
2022-09-21T07:56:16.579Z,13.00
2022-09-21T07:59:02.597Z,13.54
2022-09-21T08:01:29.509Z,13.84
2022-09-21T08:03:57.517Z,12.89
2022-09-21T08:06:26.886Z,14.18
2022-09-21T08:08:57.450Z,15.00
2022-09-21T08:11:25.860Z,16.16
2022-09-21T08:13:54.112Z,17.33
2022-09-21T08:16:21.084Z,15.03
2022-09-21T08:18:48.024Z,14.66
2022-09-21T08:21:14.468Z,14.53
2022-09-21T08:23:42.267Z,15.79
2022-09-21T08:26:11.826Z,16.85
2022-09-21T08:28:38.670Z,16.90
2022-09-21T08:31:10.487Z,17.16
2022-09-21T08:33:37.016Z,17.23
2022-09-21T08:36:04.289Z,16.61
2022-09-21T08:38:35.536Z,17.57
2022-09-21T08:41:11.381Z,17.40
2022-09-21T08:43:44.062Z,16.09
2022-09-21T08:46:18.421Z,15.99
2022-09-21T08:49:07.097Z,17.17
2022-09-21T08:51:36.893Z,17.40
2022-09-21T08:54:29.244Z,17.81
2022-09-21T08:57:11.760Z,17.31
2022-09-21T08:59:42.792Z,18.67
2022-09-21T09:02:09.230Z,16.72
2022-09-21T09:04:43.964Z,16.32
2022-09-21T09:07:16.315Z,16.51
2022-09-21T09:10:01.450Z,18.44
2022-09-21T09:12:53.918Z,16.41
2022-09-21T09:15:42.305Z,18.58
2022-09-21T09:18:31.870Z,18.41
2022-09-21T09:21:05.468Z,17.61
2022-09-21T09:23:40.076Z,17.61
2022-09-21T09:26:10.929Z,17.99
2022-09-21T09:29:41.936Z,19.63
2022-09-21T09:32:15.446Z,17.53
2022-09-21T09:34:49.084Z,18.15
2022-09-21T09:37:20.605Z,19.66
2022-09-21T09:39:57.632Z,19.26
2022-09-21T09:42:29.734Z,20.36
2022-09-21T09:45:02.385Z,21.04
2022-09-21T09:47:46.213Z,19.88
2022-09-21T09:50:28.993Z,18.75
2022-09-21T09:53:04.908Z,19.95
2022-09-21T09:55:43.767Z,20.11
2022-09-21T09:58:19.396Z,18.41
2022-09-21T10:00:47.785Z,19.01
2022-09-21T10:03:18.245Z,17.14
2022-09-21T10:05:45.097Z,17.99
2022-09-21T10:08:44.342Z,18.89
2022-09-21T10:11:15.829Z,19.70
2022-09-21T10:13:45.653Z,19.25
2022-09-21T10:16:18.169Z,21.26
2022-09-21T10:18:49.266Z,20.05
2022-09-21T10:21:25.107Z,20.56
2022-09-21T10:24:02.316Z,21.78
2022-09-21T10:26:35.706Z,21.88
2022-09-21T10:29:39.979Z,22.39
2022-09-21T10:32:21.222Z,22.02
2022-09-21T10:35:07.696Z,20.51
2022-09-21T10:37:42.979Z,19.64
2022-09-21T10:40:21.680Z,19.91
2022-09-21T10:42:50.543Z,21.47
2022-09-21T10:45:18.271Z,22.35
2022-09-21T10:47:48.364Z,23.62
2022-09-21T10:50:26.934Z,24.31
2022-09-21T10:53:00.947Z,24.45
2022-09-21T10:55:31.969Z,25.30
2022-09-21T10:57:58.958Z,25.37
2022-09-21T11:00:25.830Z,24.45
2022-09-21T11:02:54.908Z,21.16
2022-09-21T11:05:29.608Z,21.54
2022-09-21T11:08:24.431Z,21.45
2022-09-21T11:11:08.724Z,22.92
2022-09-21T11:13:42.348Z,24.45
2022-09-21T11:16:37.127Z,24.14
2022-09-21T11:19:34.390Z,23.22
2022-09-21T11:22:05.361Z,24.23
2022-09-21T11:24:52.199Z,23.35
2022-09-21T11:27:25.473Z,23.90
2022-09-21T11:30:05.012Z,23.32
2022-09-21T11:32:50.132Z,23.76
2022-09-21T11:35:31.220Z,21.92
2022-09-21T11:38:09.863Z,23.66
2022-09-21T11:40:44.788Z,22.92
2022-09-21T11:43:27.856Z,23.50
2022-09-21T11:46:17.557Z,23.32
2022-09-21T11:49:02.072Z,23.41
2022-09-21T11:52:02.922Z,24.13
2022-09-21T11:54:57.177Z,24.81
2022-09-21T11:57:31.698Z,25.50
2022-09-21T12:00:18.894Z,26.07
2022-09-21T12:03:07.271Z,26.02
2022-09-21T12:05:46.659Z,26.56
2022-09-21T12:08:30.981Z,26.55
2022-09-21T12:11:24.749Z,25.87
2022-09-21T12:14:03.612Z,26.22
2022-09-21T12:16:54.740Z,25.19
2022-09-21T12:19:49.388Z,24.76
2022-09-21T12:22:22.745Z,25.09
2022-09-21T12:25:07.414Z,27.08
2022-09-21T12:27:54.654Z,27.45
2022-09-21T12:30:23.509Z,27.24
2022-09-21T12:33:14.984Z,26.22
2022-09-21T12:36:20.268Z,25.98
2022-09-21T12:39:03.373Z,26.63
2022-09-21T12:41:46.287Z,25.18
2022-09-21T12:44:35.953Z,25.70
2022-09-21T12:47:11.788Z,25.77
2022-09-21T12:49:48.225Z,25.47
2022-09-21T12:52:28.054Z,25.37
2022-09-21T12:55:32.217Z,25.58
2022-09-21T12:58:16.663Z,24.24
2022-09-21T13:01:11.280Z,22.90
2022-09-21T13:04:16.661Z,22.23
2022-09-21T13:07:04.335Z,21.57
2022-09-21T13:09:31.844Z,20.72
2022-09-21T13:12:14.388Z,20.62
2022-09-21T13:14:47.912Z,20.56
2022-09-21T13:17:32.952Z,19.94
2022-09-21T13:20:05.556Z,19.76
2022-09-21T13:22:35.360Z,19.81
2022-09-21T13:25:03.328Z,20.04
2022-09-21T13:28:14.950Z,19.90
2022-09-21T13:30:47.329Z,19.78
2022-09-21T13:33:16.831Z,19.88
2022-09-21T13:36:04.303Z,19.83
2022-09-21T13:38:40.116Z,19.71
2022-09-21T13:41:18.549Z,19.80
2022-09-21T13:43:46.291Z,19.94
2022-09-21T13:46:31.897Z,19.76
2022-09-21T13:49:02.168Z,19.73
2022-09-21T13:51:33.299Z,19.67
2022-09-21T13:54:02.659Z,19.78
2022-09-21T13:56:33.177Z,19.55
2022-09-21T13:59:00.023Z,19.70
2022-09-21T14:01:51.242Z,19.78
2022-09-21T14:15:49.540Z,24.38
2022-09-21T14:18:16.902Z,24.52
2022-09-21T14:21:08.418Z,25.00
2022-09-21T14:23:37.253Z,24.68
2022-09-21T14:26:36.280Z,24.47
2022-09-21T14:29:15.607Z,23.83
2022-09-21T14:31:42.368Z,24.18
2022-09-21T14:34:22.786Z,23.29
2022-09-21T14:36:54.210Z,22.37
2022-09-21T14:39:30.223Z,21.40
2022-09-21T14:42:03.643Z,21.11
2022-09-21T14:44:35.206Z,20.66
2022-09-21T15:07:47.062Z,23.77
2022-09-21T15:10:37.423Z,23.76
2022-09-21T15:13:26.005Z,23.69
2022-09-21T15:16:13.942Z,23.46
2022-09-21T15:18:41.717Z,23.62
2022-09-21T15:21:24.317Z,23.43
2022-09-21T15:23:52.304Z,23.56
2022-09-21T15:26:26.693Z,22.53
2022-09-21T15:29:09.334Z,21.93
2022-09-21T15:31:42.118Z,22.25
2022-09-21T15:34:10.939Z,22.70
2022-09-21T15:36:40.637Z,23.07
2022-09-21T15:39:20.434Z,23.15
2022-09-21T15:41:51.879Z,23.12
2022-09-21T15:44:22.933Z,22.81
2022-09-21T15:47:01.227Z,21.98
2022-09-21T15:49:29.737Z,21.02
2022-09-21T15:52:02.541Z,20.29
2022-09-21T15:54:35.210Z,19.56
2022-09-21T15:57:08.610Z,19.15
2022-09-21T15:59:35.660Z,18.92
2022-09-21T16:02:11.906Z,18.74
2022-09-21T16:04:49.131Z,18.73
2022-09-21T16:07:33.851Z,18.53
2022-09-21T16:10:01.516Z,18.37
2022-09-21T16:12:45.699Z,18.37
2022-09-21T16:15:30.214Z,18.83
2022-09-21T16:18:02.704Z,19.39
2022-09-21T16:20:42.574Z,19.71
2022-09-21T16:23:16.955Z,20.00
2022-09-21T16:25:43.905Z,20.36
2022-09-21T16:28:17.411Z,20.31
2022-09-21T16:30:46.016Z,20.59
2022-09-21T16:33:42.454Z,20.73
2022-09-21T16:36:32.441Z,20.65
2022-09-21T16:39:00.361Z,20.65
2022-09-21T16:41:35.022Z,20.59
2022-09-21T16:44:03.168Z,20.66
2022-09-21T16:46:32.273Z,20.41
2022-09-21T16:48:59.180Z,20.13
2022-09-21T16:51:28.143Z,20.07
2022-09-21T16:53:56.504Z,19.88
2022-09-21T16:56:22.959Z,19.83
2022-09-21T16:58:49.654Z,19.36
2022-09-21T17:01:21.373Z,19.08
2022-09-21T17:03:47.962Z,18.81
2022-09-21T17:06:19.803Z,18.53
2022-09-21T17:08:48.245Z,18.26
2022-09-21T17:11:22.196Z,18.08
2022-09-21T17:13:52.735Z,17.83
2022-09-21T17:16:20.074Z,17.55
2022-09-21T17:18:47.759Z,17.23
2022-09-21T17:21:15.367Z,16.86
2022-09-21T17:23:42.917Z,16.73
2022-09-21T17:26:17.734Z,16.44
2022-09-21T17:28:44.891Z,16.35
2022-09-21T17:31:13.898Z,16.17
2022-09-21T17:33:40.857Z,15.76
2022-09-21T17:36:13.449Z,15.63
2022-09-21T17:38:41.729Z,15.62
2022-09-21T17:41:19.658Z,15.36
2022-09-21T17:44:05.667Z,15.28
2022-09-21T17:46:46.259Z,15.00
2022-09-21T17:49:13.156Z,14.95
2022-09-21T17:51:58.372Z,14.84
2022-09-21T17:57:44.798Z,14.29
2022-09-21T18:00:20.638Z,14.28
2022-09-21T18:02:47.974Z,14.12
2022-09-21T18:05:22.764Z,13.93
2022-09-21T18:07:52.019Z,13.88
2022-09-21T18:10:27.493Z,13.80
2022-09-21T18:12:57.342Z,13.71
2022-09-21T18:15:42.418Z,13.71
2022-09-21T18:18:22.517Z,13.70
2022-09-21T18:21:03.611Z,13.60
2022-09-21T18:23:35.421Z,13.54
2022-09-21T18:26:02.173Z,13.58
2022-09-21T18:28:37.956Z,13.44
2022-09-21T18:31:14.855Z,13.53
2022-09-21T18:34:12.936Z,13.30
2022-09-21T18:36:52.968Z,13.20
2022-09-21T18:39:47.474Z,13.03
2022-09-21T18:42:42.824Z,12.96
2022-09-21T18:45:19.417Z,12.92
2022-09-21T18:48:13.157Z,12.76
2022-09-21T18:51:09.044Z,12.82
2022-09-21T18:53:49.766Z,12.72
2022-09-21T18:56:16.519Z,12.65
2022-09-21T18:58:43.143Z,12.55
2022-09-21T19:01:13.784Z,12.63
2022-09-21T19:03:45.094Z,12.81
2022-09-21T19:06:19.421Z,12.71
2022-09-21T19:09:02.537Z,12.60
2022-09-21T19:11:43.349Z,12.51
2022-09-21T19:15:00.854Z,12.48
2022-09-21T19:17:53.808Z,12.44
2022-09-21T19:20:29.799Z,12.16
2022-09-21T19:23:16.763Z,12.05
2022-09-21T19:25:49.786Z,12.09
2022-09-21T19:28:33.201Z,11.95
2022-09-21T19:31:07.742Z,11.96
2022-09-21T19:33:51.210Z,11.82
2022-09-21T19:36:18.950Z,11.82
2022-09-21T19:38:45.631Z,11.75
2022-09-21T19:41:34.958Z,11.66
2022-09-21T19:44:12.879Z,11.63
2022-09-21T19:47:03.362Z,11.62
2022-09-21T19:49:48.412Z,11.49
2022-09-21T19:52:19.451Z,11.44
2022-09-21T19:55:34.570Z,11.42
2022-09-21T19:58:19.899Z,11.42
2022-09-21T20:00:52.816Z,11.44
2022-09-21T20:03:42.402Z,11.35
2022-09-21T20:06:15.243Z,11.23
2022-09-21T20:08:46.580Z,11.24
2022-09-21T20:11:38.485Z,11.20
2022-09-21T20:14:50.912Z,11.17
2022-09-21T20:17:23.951Z,11.16
2022-09-21T20:19:59.642Z,11.04
2022-09-21T20:22:36.759Z,11.08
2022-09-21T20:25:12.925Z,11.16
2022-09-21T20:27:39.494Z,11.11
2022-09-21T20:30:09.896Z,11.03
2022-09-21T20:32:39.093Z,11.13
2022-09-21T20:35:14.876Z,10.99
2022-09-21T20:37:42.229Z,10.87
2022-09-21T20:40:09.637Z,10.87
2022-09-21T20:42:39.436Z,11.17
2022-09-21T20:45:07.461Z,11.06
2022-09-21T20:47:34.341Z,11.17
2022-09-21T20:50:00.843Z,11.03
2022-09-21T20:52:28.487Z,10.94
2022-09-21T20:54:55.038Z,10.90
2022-09-21T20:57:21.452Z,10.94
2022-09-21T20:59:48.200Z,10.87
2022-09-21T21:02:16.509Z,10.90
2022-09-21T21:04:43.021Z,10.96
2022-09-21T21:07:10.502Z,10.73
2022-09-21T21:09:37.291Z,10.66
2022-09-21T21:12:04.044Z,10.76
2022-09-21T21:14:30.412Z,10.65
2022-09-21T21:16:56.834Z,10.58
2022-09-21T21:19:23.346Z,10.46
2022-09-21T21:21:49.699Z,10.50
2022-09-21T21:24:35.059Z,10.52
2022-09-21T21:27:03.055Z,10.45
2022-09-21T21:29:30.336Z,10.31
2022-09-21T21:31:57.476Z,10.31
2022-09-21T21:34:24.238Z,10.15
2022-09-21T21:36:51.187Z,10.15
2022-09-21T21:39:17.566Z,10.15
2022-09-21T21:41:43.945Z,10.14
2022-09-21T21:44:11.499Z,10.18
2022-09-21T21:46:37.980Z,10.22
2022-09-21T21:49:04.865Z,10.28
2022-09-21T21:51:31.816Z,10.22
2022-09-21T21:53:58.358Z,9.98
2022-09-21T21:56:26.514Z,10.02
2022-09-21T21:58:54.160Z,10.04
2022-09-21T22:01:23.732Z,10.08
2022-09-21T22:03:55.251Z,10.04
2022-09-21T22:06:22.666Z,10.02
2022-09-21T22:08:50.567Z,10.04
2022-09-21T22:11:17.506Z,10.05
2022-09-21T22:13:45.508Z,9.90
2022-09-21T22:16:18.594Z,9.74
2022-09-21T22:18:46.182Z,9.69
2022-09-21T22:21:23.525Z,9.67
2022-09-21T22:23:57.361Z,9.67
2022-09-21T22:26:25.622Z,9.64
2022-09-21T22:28:56.329Z,9.62
2022-09-21T22:31:28.695Z,9.66
2022-09-21T22:33:58.430Z,9.67
2022-09-21T22:36:27.547Z,9.66
2022-09-21T22:38:54.428Z,9.70
2022-09-21T22:41:30.287Z,9.62
2022-09-21T22:43:58.417Z,9.59
2022-09-21T22:46:26.610Z,9.60
2022-09-21T22:48:53.133Z,9.53
2022-09-21T22:51:20.840Z,9.43
2022-09-21T22:53:48.677Z,9.40
2022-09-21T22:56:15.096Z,9.39
2022-09-21T22:58:46.419Z,9.31
2022-09-21T23:01:14.897Z,9.36
2022-09-21T23:03:41.893Z,9.28
2022-09-21T23:06:11.661Z,9.28
2022-09-21T23:08:38.907Z,9.22
2022-09-21T23:11:08.130Z,9.16
2022-09-21T23:13:34.511Z,9.11
2022-09-21T23:16:02.916Z,9.12
2022-09-21T23:18:30.060Z,9.05
2022-09-21T23:21:05.497Z,9.15
2022-09-21T23:23:32.956Z,9.12
2022-09-21T23:26:08.373Z,9.05
2022-09-21T23:28:36.045Z,9.00
2022-09-21T23:31:05.491Z,9.01
2022-09-21T23:33:37.875Z,8.92
2022-09-21T23:36:06.357Z,8.92
2022-09-21T23:38:33.675Z,9.02
2022-09-21T23:41:04.895Z,9.00
2022-09-21T23:43:31.936Z,8.91
2022-09-21T23:45:58.902Z,8.89
2022-09-21T23:48:27.120Z,8.88
2022-09-21T23:50:55.518Z,8.80
2022-09-21T23:53:22.899Z,8.74
2022-09-21T23:55:49.802Z,8.73
